Time;durP1;ratioP1;P1;durP2;ratioP2;P2;SDS_P1;SDS_P2;PMS_P1;PMS_P2;Temp;Humidity;BMP_temperature;BMP_pressure;BME280_temperature;BME280_humidity;BME280_pressure;Samples;Min_cycle;Max_cycle;Signal;HPM_P1;HPM_P2
2023/05/05 00:02:10;;;;;;;5.07;4.53;;;;;;;;;;6124662;23;20017;-78
2023/05/05 00:04:36;;;;;;;4.82;4.43;;;;;;;;;;6100792;23;20029;-78
2023/05/05 00:07:02;;;;;;;9.30;4.50;;;;;;;;;;6114759;23;20013;-78
2023/05/05 00:09:28;;;;;;;8.45;4.80;;;;;;;;;;6126169;23;20040;-77
2023/05/05 00:11:54;;;;;;;7.38;4.60;;;;;;;;;;6125814;23;20010;-76
2023/05/05 00:14:20;;;;;;;11.25;4.93;;;;;;;;;;6125141;23;20049;-76
2023/05/05 00:16:46;;;;;;;8.85;4.97;;;;;;;;;;6098197;23;20014;-76
2023/05/05 00:19:12;;;;;;;6.10;5.15;;;;;;;;;;6124060;23;20522;-76
2023/05/05 00:21:38;;;;;;;10.02;5.85;;;;;;;;;;6099065;23;20064;-77
2023/05/05 00:24:05;;;;;;;13.98;5.35;;;;;;;;;;6125243;23;20017;-77
2023/05/05 00:26:31;;;;;;;16.15;9.75;;;;;;;;;;6125723;23;20021;-77
2023/05/05 00:28:57;;;;;;;14.85;7.93;;;;;;;;;;6100272;23;20018;-77
2023/05/05 00:31:23;;;;;;;7.93;4.75;;;;;;;;;;6102364;23;20017;-76
2023/05/05 00:33:49;;;;;;;12.32;5.65;;;;;;;;;;6099669;23;20021;-77
2023/05/05 00:36:15;;;;;;;15.65;5.68;;;;;;;;;;6074854;23;20020;-76
2023/05/05 00:38:41;;;;;;;7.95;5.15;;;;;;;;;;6076006;23;20464;-77
2023/05/05 00:41:07;;;;;;;10.27;5.40;;;;;;;;;;6099905;23;20013;-78
2023/05/05 00:43:33;;;;;;;13.45;5.70;;;;;;;;;;6126078;23;20016;-77
2023/05/05 00:45:59;;;;;;;9.48;6.10;;;;;;;;;;6125437;23;20092;-77
2023/05/05 00:48:25;;;;;;;7.25;5.40;;;;;;;;;;6099187;23;20020;-78
2023/05/05 00:50:51;;;;;;;8.95;6.47;;;;;;;;;;6051808;23;20033;-76
2023/05/05 00:53:18;;;;;;;17.73;6.40;;;;;;;;;;6126776;23;20024;-77
2023/05/05 00:55:45;;;;;;;8.93;5.40;;;;;;;;;;6103376;23;20028;-76
2023/05/05 00:58:12;;;;;;;7.30;5.60;;;;;;;;;;6108825;23;20010;-76
2023/05/05 01:00:38;;;;;;;6.93;5.60;;;;;;;;;;6108503;23;20021;-77
2023/05/05 01:03:04;;;;;;;7.32;5.65;;;;;;;;;;6106601;23;20014;-77
2023/05/05 01:05:33;;;;;;;10.65;6.13;;;;;;;;;;6104560;23;20066;-77
2023/05/05 01:08:18;;;;;;;10.25;5.57;;;;;;;;;;6071609;23;20017;-78
2023/05/05 01:10:45;;;;;;;10.57;5.63;;;;;;;;;;6117712;23;20018;-77
2023/05/05 01:13:15;;;;;;;8.18;5.50;;;;;;;;;;6110186;23;20041;-78
2023/05/05 01:16:00;;;;;;;12.10;5.30;;;;;;;;;;6108840;23;20029;-75
2023/05/05 01:18:46;;;;;;;8.98;5.10;;;;;;;;;;6140183;23;20020;-76
2023/05/05 01:21:19;;;;;;;9.65;5.85;;;;;;;;;;6127974;23;20021;-78
2023/05/05 01:23:54;;;;;;;8.40;5.75;;;;;;;;;;6105329;23;20061;-79
2023/05/05 01:26:23;;;;;;;7.50;5.53;;;;;;;;;;6106953;23;20030;-78
2023/05/05 01:29:08;;;;;;;8.32;5.70;;;;;;;;;;6103759;23;20038;-77
2023/05/05 01:31:50;;;;;;;9.55;5.50;;;;;;;;;;6103605;23;20017;-78
2023/05/05 01:34:23;;;;;;;10.93;5.53;;;;;;;;;;6128379;23;20029;-76
2023/05/05 01:36:52;;;;;;;10.38;5.30;;;;;;;;;;6102221;23;20217;-77
2023/05/05 01:39:18;;;;;;;15.65;5.45;;;;;;;;;;6053405;23;20041;-77
2023/05/05 01:41:46;;;;;;;6.22;4.43;;;;;;;;;;6102591;23;20590;-77
2023/05/05 01:44:12;;;;;;;9.27;4.32;;;;;;;;;;6101107;23;20466;-77
2023/05/05 01:46:38;;;;;;;7.45;6.10;;;;;;;;;;6100021;23;20010;-76
2023/05/05 01:49:06;;;;;;;5.90;3.88;;;;;;;;;;6099286;23;20544;-75
2023/05/05 01:51:32;;;;;;;8.13;4.45;;;;;;;;;;6074426;23;20045;-76
2023/05/05 01:53:58;;;;;;;8.40;5.35;;;;;;;;;;6099553;23;20025;-78
2023/05/05 01:56:24;;;;;;;10.38;5.50;;;;;;;;;;6102234;23;20017;-76
2023/05/05 01:58:50;;;;;;;11.20;7.22;;;;;;;;;;6078790;23;20045;-76
2023/05/05 02:01:17;;;;;;;10.55;6.15;;;;;;;;;;6103709;23;20434;-76
2023/05/05 02:03:43;;;;;;;10.32;5.90;;;;;;;;;;6107678;23;20010;-77
2023/05/05 02:06:09;;;;;;;8.15;5.88;;;;;;;;;;6080040;23;20534;-77
2023/05/05 02:08:35;;;;;;;7.65;5.90;;;;;;;;;;6126122;23;20018;-76
2023/05/05 02:11:01;;;;;;;13.02;6.57;;;;;;;;;;6100616;23;20358;-76
2023/05/05 02:13:27;;;;;;;10.65;6.20;;;;;;;;;;6083408;23;20096;-76
2023/05/05 02:15:53;;;;;;;15.50;7.10;;;;;;;;;;6110060;23;20026;-76
2023/05/05 02:18:19;;;;;;;12.90;6.50;;;;;;;;;;6108948;23;20014;-76
2023/05/05 02:20:46;;;;;;;6.63;4.13;;;;;;;;;;6111377;23;20021;-77
2023/05/05 02:23:12;;;;;;;7.13;3.70;;;;;;;;;;6087563;23;20014;-77
2023/05/05 02:25:39;;;;;;;9.70;4.63;;;;;;;;;;6065531;23;20033;-78
2023/05/05 02:28:07;;;;;;;3.80;3.53;;;;;;;;;;6110651;23;20395;-76
2023/05/05 02:30:33;;;;;;;8.05;3.00;;;;;;;;;;6109895;23;20025;-78
2023/05/05 02:33:02;;;;;;;5.72;3.10;;;;;;;;;;6106852;23;20014;-77
2023/05/05 02:35:30;;;;;;;3.08;2.88;;;;;;;;;;6130532;23;20058;-77
2023/05/05 02:38:01;;;;;;;9.50;3.10;;;;;;;;;;6102686;23;20064;-77
2023/05/05 02:40:33;;;;;;;3.45;2.85;;;;;;;;;;6077689;23;20021;-77
2023/05/05 02:43:00;;;;;;;7.88;3.38;;;;;;;;;;6101227;23;20097;-76
2023/05/05 02:45:29;;;;;;;6.30;3.58;;;;;;;;;;6078399;23;20018;-76
2023/05/05 02:47:55;;;;;;;6.47;4.03;;;;;;;;;;6128787;23;20029;-76
2023/05/05 02:50:22;;;;;;;7.95;4.97;;;;;;;;;;6098836;23;20020;-77
2023/05/05 02:52:58;;;;;;;5.40;4.03;;;;;;;;;;6077338;23;20020;-79
2023/05/05 02:55:32;;;;;;;6.07;3.92;;;;;;;;;;6098778;23;20100;-75
2023/05/05 02:58:20;;;;;;;10.68;5.50;;;;;;;;;;6074956;23;20020;-76
2023/05/05 03:01:10;;;;;;;8.80;4.53;;;;;;;;;;6099774;23;20466;-76
2023/05/05 03:03:43;;;;;;;8.23;4.80;;;;;;;;;;6106646;23;20018;-77
2023/05/05 03:06:21;;;;;;;14.02;5.50;;;;;;;;;;6099145;23;20108;-75
2023/05/05 03:08:48;;;;;;;6.90;4.78;;;;;;;;;;6075947;23;20346;-77
2023/05/05 03:11:18;;;;;;;6.40;5.00;;;;;;;;;;6076238;23;20017;-79
2023/05/05 03:13:45;;;;;;;16.10;5.18;;;;;;;;;;6086092;23;20017;-78
2023/05/05 03:16:16;;;;;;;7.90;5.50;;;;;;;;;;6086288;23;20037;-78
2023/05/05 03:18:42;;;;;;;8.50;5.50;;;;;;;;;;6134538;23;20021;-77
2023/05/05 03:21:09;;;;;;;11.43;5.57;;;;;;;;;;6086135;23;20108;-79
2023/05/05 03:23:38;;;;;;;6.97;5.55;;;;;;;;;;6088643;23;20010;-79
2023/05/05 03:26:09;;;;;;;6.55;5.38;;;;;;;;;;6114473;23;20032;-79
2023/05/05 03:28:40;;;;;;;12.88;6.00;;;;;;;;;;6091206;23;20065;-79
2023/05/05 03:31:14;;;;;;;11.90;5.95;;;;;;;;;;6141483;23;20021;-79
2023/05/05 03:33:41;;;;;;;10.50;6.78;;;;;;;;;;6069833;23;20009;-79
2023/05/05 03:36:09;;;;;;;10.98;6.50;;;;;;;;;;6115618;23;20017;-79
2023/05/05 03:38:35;;;;;;;9.55;5.82;;;;;;;;;;6116364;23;20037;-79
2023/05/05 03:41:04;;;;;;;13.23;6.28;;;;;;;;;;6113674;23;20037;-79
2023/05/05 03:43:31;;;;;;;11.20;6.72;;;;;;;;;;6084844;23;20021;-80
2023/05/05 03:45:57;;;;;;;13.43;6.25;;;;;;;;;;6111309;23;20089;-79
2023/05/05 03:48:24;;;;;;;11.48;6.80;;;;;;;;;;6089171;23;20077;-79
2023/05/05 03:50:52;;;;;;;8.32;6.68;;;;;;;;;;6132818;23;20553;-79
2023/05/05 03:53:20;;;;;;;12.32;7.28;;;;;;;;;;6104328;23;20549;-78
2023/05/05 03:55:48;;;;;;;9.13;6.07;;;;;;;;;;6108242;23;20032;-80
2023/05/05 03:58:14;;;;;;;8.27;6.78;;;;;;;;;;6107551;23;20013;-80
2023/05/05 04:00:40;;;;;;;11.85;6.20;;;;;;;;;;6132880;23;20010;-79
2023/05/05 04:03:06;;;;;;;8.60;5.50;;;;;;;;;;6106027;23;20076;-80
2023/05/05 04:05:33;;;;;;;9.07;5.63;;;;;;;;;;6104614;23;20018;-78
2023/05/05 04:08:00;;;;;;;11.32;6.25;;;;;;;;;;6130223;23;20010;-79
2023/05/05 04:10:33;;;;;;;10.98;6.72;;;;;;;;;;6108793;23;20455;-78
2023/05/05 04:13:00;;;;;;;9.68;5.53;;;;;;;;;;6080482;23;20363;-79
2023/05/05 04:15:27;;;;;;;12.93;5.32;;;;;;;;;;6105890;23;20025;-78
2023/05/05 04:17:53;;;;;;;6.28;4.93;;;;;;;;;;6104426;23;20096;-78
2023/05/05 04:20:20;;;;;;;13.73;5.30;;;;;;;;;;6103293;23;20014;-78
2023/05/05 04:22:46;;;;;;;9.65;5.10;;;;;;;;;;6130168;23;20006;-78
2023/05/05 04:25:13;;;;;;;5.88;5.05;;;;;;;;;;6079656;23;20088;-78
2023/05/05 04:27:39;;;;;;;10.65;4.18;;;;;;;;;;6103989;23;20022;-78
2023/05/05 04:30:06;;;;;;;8.27;4.68;;;;;;;;;;6082612;23;20014;-79
2023/05/05 04:32:34;;;;;;;4.40;4.00;;;;;;;;;;6106412;23;20021;-79
2023/05/05 04:35:00;;;;;;;5.43;4.40;;;;;;;;;;6133153;23;20026;-78
2023/05/05 04:37:27;;;;;;;6.30;4.50;;;;;;;;;;6109949;23;20404;-77
2023/05/05 04:39:53;;;;;;;7.82;4.13;;;;;;;;;;6105036;23;20061;-77
2023/05/05 04:42:20;;;;;;;7.28;4.85;;;;;;;;;;6102134;23;20006;-78
2023/05/05 04:44:46;;;;;;;9.07;3.97;;;;;;;;;;6129966;23;20014;-78
2023/05/05 04:47:12;;;;;;;10.20;4.00;;;;;;;;;;6080250;23;20025;-78
2023/05/05 04:49:40;;;;;;;12.00;3.65;;;;;;;;;;6055044;23;20014;-79
2023/05/05 04:52:06;;;;;;;6.70;3.20;;;;;;;;;;6105251;23;20013;-78
2023/05/05 04:54:36;;;;;;;7.97;3.05;;;;;;;;;;6108032;23;20049;-80
2023/05/05 04:57:02;;;;;;;8.93;3.83;;;;;;;;;;6114194;23;20021;-80
2023/05/05 04:59:29;;;;;;;4.13;3.35;;;;;;;;;;6110806;23;20022;-77
2023/05/05 05:01:55;;;;;;;6.35;3.67;;;;;;;;;;6134962;23;20077;-79
2023/05/05 05:04:24;;;;;;;6.75;3.50;;;;;;;;;;6137785;23;20073;-79
2023/05/05 05:06:51;;;;;;;6.35;3.65;;;;;;;;;;6110072;23;20014;-78
2023/05/05 05:09:17;;;;;;;4.38;3.40;;;;;;;;;;6111454;23;20018;-80
2023/05/05 05:11:43;;;;;;;6.22;3.05;;;;;;;;;;6141971;23;20046;-79
2023/05/05 05:14:09;;;;;;;4.43;2.65;;;;;;;;;;6108879;23;20804;-72
2023/05/05 05:16:36;;;;;;;5.15;3.28;;;;;;;;;;6073518;23;20085;-72
2023/05/05 05:19:02;;;;;;;6.72;3.03;;;;;;;;;;6123345;23;20018;-71
2023/05/05 05:21:30;;;;;;;4.15;3.80;;;;;;;;;;6072784;23;20017;-73
2023/05/05 05:23:57;;;;;;;6.22;2.88;;;;;;;;;;6097585;23;20028;-72
2023/05/05 05:26:24;;;;;;;3.50;2.88;;;;;;;;;;6096884;23;20514;-71
2023/05/05 05:28:50;;;;;;;4.80;2.60;;;;;;;;;;6073860;23;20018;-72
2023/05/05 05:31:17;;;;;;;2.58;2.22;;;;;;;;;;6097558;23;20463;-71
2023/05/05 05:33:44;;;;;;;8.73;2.65;;;;;;;;;;6096360;23;20022;-71
2023/05/05 05:36:12;;;;;;;6.15;3.22;;;;;;;;;;6096583;23;20092;-70
2023/05/05 05:38:38;;;;;;;7.35;2.60;;;;;;;;;;6096999;23;20006;-70
2023/05/05 05:41:08;;;;;;;4.57;2.80;;;;;;;;;;6073774;23;20209;-71
2023/05/05 05:43:36;;;;;;;4.57;2.85;;;;;;;;;;6096588;23;20010;-71
2023/05/05 05:46:03;;;;;;;4.78;3.00;;;;;;;;;;6072967;23;20498;-71
2023/05/05 05:48:29;;;;;;;2.88;2.30;;;;;;;;;;6097024;23;20014;-71
2023/05/05 05:50:57;;;;;;;5.03;2.60;;;;;;;;;;6097000;23;20020;-69
2023/05/05 05:53:23;;;;;;;2.75;2.53;;;;;;;;;;6096813;23;20355;-72
2023/05/05 05:55:52;;;;;;;5.22;3.10;;;;;;;;;;6122907;23;20029;-71
2023/05/05 05:58:18;;;;;;;6.32;3.00;;;;;;;;;;6073002;23;20017;-71
2023/05/05 06:00:45;;;;;;;4.80;3.10;;;;;;;;;;6097144;23;20396;-71
2023/05/05 06:03:12;;;;;;;6.32;2.70;;;;;;;;;;6097164;23;20020;-70
2023/05/05 06:05:38;;;;;;;9.25;2.80;;;;;;;;;;6096241;23;20013;-70
2023/05/05 06:08:05;;;;;;;9.13;2.90;;;;;;;;;;6123272;23;20017;-71
2023/05/05 06:10:35;;;;;;;12.32;3.10;;;;;;;;;;6096786;23;20014;-70
2023/05/05 06:13:05;;;;;;;4.60;2.95;;;;;;;;;;6074322;23;20454;-70
2023/05/05 06:15:33;;;;;;;14.80;3.13;;;;;;;;;;6072911;23;20475;-71
2023/05/05 06:18:01;;;;;;;4.95;2.90;;;;;;;;;;6073414;23;20014;-70
2023/05/05 06:20:27;;;;;;;3.33;2.72;;;;;;;;;;6097122;23;20021;-71
2023/05/05 06:22:53;;;;;;;3.28;3.00;;;;;;;;;;6096765;23;20009;-70
2023/05/05 06:25:20;;;;;;;3.10;2.70;;;;;;;;;;6096825;23;20014;-71
2023/05/05 06:27:48;;;;;;;3.35;2.60;;;;;;;;;;6096646;23;20025;-72
2023/05/05 06:30:13;;;;;;;3.35;2.90;;;;;;;;;;6122625;23;20021;-72
2023/05/05 06:32:40;;;;;;;4.40;3.20;;;;;;;;;;6122842;23;20014;-74
2023/05/05 06:35:06;;;;;;;4.70;3.10;;;;;;;;;;6096767;23;20477;-72
2023/05/05 06:37:33;;;;;;;2.63;2.42;;;;;;;;;;6122566;23;20017;-73
2023/05/05 06:39:58;;;;;;;6.53;2.90;;;;;;;;;;6123080;23;20332;-70
2023/05/05 06:42:24;;;;;;;4.93;3.10;;;;;;;;;;6122418;23;20096;-71
2023/05/05 06:44:54;;;;;;;3.17;2.40;;;;;;;;;;6096657;23;20462;-70
2023/05/05 06:47:20;;;;;;;2.67;2.20;;;;;;;;;;6096899;23;20492;-70
2023/05/05 06:49:49;;;;;;;5.07;2.45;;;;;;;;;;6122457;23;20021;-71
2023/05/05 06:52:21;;;;;;;7.18;2.20;;;;;;;;;;6072930;23;20012;-70
2023/05/05 06:54:47;;;;;;;4.20;2.45;;;;;;;;;;6122414;23;20029;-70
2023/05/05 06:57:13;;;;;;;5.20;2.58;;;;;;;;;;6122651;23;20021;-71
2023/05/05 06:59:39;;;;;;;5.32;2.60;;;;;;;;;;6096365;23;20021;-70
2023/05/05 07:02:06;;;;;;;4.55;2.78;;;;;;;;;;6122209;23;20065;-72
2023/05/05 07:04:31;;;;;;;4.90;2.80;;;;;;;;;;6096300;23;20014;-71
2023/05/05 07:06:58;;;;;;;3.90;2.20;;;;;;;;;;6121960;23;20031;-69
2023/05/05 07:09:24;;;;;;;3.10;2.35;;;;;;;;;;6121816;23;20018;-71
2023/05/05 07:11:52;;;;;;;3.03;1.90;;;;;;;;;;6072705;23;20018;-70
2023/05/05 07:14:18;;;;;;;4.40;2.20;;;;;;;;;;6072521;23;20493;-70
2023/05/05 07:16:45;;;;;;;5.45;2.22;;;;;;;;;;6122536;23;20088;-71
2023/05/05 07:19:11;;;;;;;4.03;2.13;;;;;;;;;;6096224;23;20025;-70
2023/05/05 07:21:38;;;;;;;4.63;2.47;;;;;;;;;;6095703;23;20398;-70
2023/05/05 07:24:04;;;;;;;4.88;2.50;;;;;;;;;;6095404;23;20013;-71
2023/05/05 07:26:30;;;;;;;4.72;2.40;;;;;;;;;;6121744;23;20025;-71
2023/05/05 07:28:57;;;;;;;4.40;2.70;;;;;;;;;;6098859;23;20025;-70
2023/05/05 07:31:23;;;;;;;8.18;2.83;;;;;;;;;;6075297;23;20041;-69
2023/05/05 07:33:49;;;;;;;13.20;2.60;;;;;;;;;;6123241;23;20470;-70
2023/05/05 07:36:16;;;;;;;6.15;2.63;;;;;;;;;;6122660;23;20059;-69
2023/05/05 07:38:42;;;;;;;2.40;2.25;;;;;;;;;;6096397;23;20485;-70
2023/05/05 07:41:10;;;;;;;5.05;3.00;;;;;;;;;;6121699;23;20021;-70
2023/05/05 07:43:36;;;;;;;5.68;2.40;;;;;;;;;;6122024;23;20033;-71
2023/05/05 07:46:02;;;;;;;3.55;2.78;;;;;;;;;;6120769;23;20021;-71
2023/05/05 07:48:29;;;;;;;8.23;2.70;;;;;;;;;;6095010;23;20081;-72
2023/05/05 07:50:55;;;;;;;4.55;2.80;;;;;;;;;;6122513;23;20018;-71
2023/05/05 07:53:21;;;;;;;12.90;2.65;;;;;;;;;;6122068;23;20009;-72
2023/05/05 07:55:47;;;;;;;3.58;2.55;;;;;;;;;;6120852;23;20026;-73
2023/05/05 07:58:13;;;;;;;1.77;1.70;;;;;;;;;;6120688;23;20017;-73
2023/05/05 08:00:40;;;;;;;8.77;2.75;;;;;;;;;;6120455;23;20228;-72
2023/05/05 08:03:06;;;;;;;4.18;2.38;;;;;;;;;;6120008;23;20485;-72
2023/05/05 08:05:32;;;;;;;3.53;2.45;;;;;;;;;;6120002;23;20020;-72
2023/05/05 08:07:58;;;;;;;4.43;3.00;;;;;;;;;;6119907;23;20014;-72
2023/05/05 08:10:23;;;;;;;2.58;2.38;;;;;;;;;;6094082;23;20020;-71
2023/05/05 08:12:49;;;;;;;8.05;2.63;;;;;;;;;;6093001;23;20009;-71
2023/05/05 08:15:15;;;;;;;6.60;3.03;;;;;;;;;;6120113;23;20368;-72
2023/05/05 08:17:42;;;;;;;4.57;2.80;;;;;;;;;;6119814;23;20024;-72
2023/05/05 08:20:08;;;;;;;3.90;2.47;;;;;;;;;;6119985;23;20493;-72
2023/05/05 08:22:37;;;;;;;5.50;3.33;;;;;;;;;;6093956;23;20029;-72
2023/05/05 08:25:03;;;;;;;8.07;3.58;;;;;;;;;;6093896;23;20018;-72
2023/05/05 08:27:30;;;;;;;6.80;2.72;;;;;;;;;;6121860;23;20026;-71
2023/05/05 08:29:57;;;;;;;7.95;3.20;;;;;;;;;;6122231;23;20526;-71
2023/05/05 08:32:23;;;;;;;6.57;3.30;;;;;;;;;;6122050;23;20029;-71
2023/05/05 08:34:49;;;;;;;7.53;5.00;;;;;;;;;;6122063;23;20018;-71
2023/05/05 08:37:17;;;;;;;6.35;3.10;;;;;;;;;;6123695;23;20017;-71
2023/05/05 08:39:43;;;;;;;3.00;2.80;;;;;;;;;;6077005;23;20032;-69
2023/05/05 08:42:09;;;;;;;7.05;2.85;;;;;;;;;;6128667;23;20021;-70
2023/05/05 08:44:35;;;;;;;8.02;3.10;;;;;;;;;;6126452;23;20014;-70
2023/05/05 08:47:01;;;;;;;5.97;2.33;;;;;;;;;;6128545;23;20021;-71
2023/05/05 08:49:29;;;;;;;5.68;3.08;;;;;;;;;;6130295;23;20041;-71
2023/05/05 08:51:55;;;;;;;4.10;3.30;;;;;;;;;;6127476;23;20096;-71
2023/05/05 08:54:21;;;;;;;11.85;3.90;;;;;;;;;;6097582;23;20021;-71
2023/05/05 08:56:49;;;;;;;5.63;3.55;;;;;;;;;;6096021;23;20019;-71
2023/05/05 08:59:15;;;;;;;3.10;2.90;;;;;;;;;;6122442;23;20113;-72
2023/05/05 09:01:41;;;;;;;9.43;3.90;;;;;;;;;;6048568;23;20018;-71
2023/05/05 09:04:08;;;;;;;3.40;3.20;;;;;;;;;;6122228;23;20032;-71
2023/05/05 09:06:34;;;;;;;5.18;3.80;;;;;;;;;;6072109;23;20097;-72
2023/05/05 09:09:01;;;;;;;5.43;2.92;;;;;;;;;;6122468;23;20064;-71
2023/05/05 09:11:27;;;;;;;3.90;3.60;;;;;;;;;;6122507;23;20036;-72
2023/05/05 09:13:53;;;;;;;3.75;3.45;;;;;;;;;;6122336;23;20010;-71
2023/05/05 09:16:21;;;;;;;4.07;3.38;;;;;;;;;;6122422;23;20384;-72
2023/05/05 09:18:49;;;;;;;2.67;2.53;;;;;;;;;;6122027;23;20082;-71
2023/05/05 09:21:24;;;;;;;2.78;2.58;;;;;;;;;;6122432;23;20018;-71
2023/05/05 09:24:03;;;;;;;2.95;2.75;;;;;;;;;;6096578;23;20020;-71
2023/05/05 09:26:31;;;;;;;5.75;3.78;;;;;;;;;;6072980;23;20402;-70
2023/05/05 09:28:57;;;;;;;5.07;3.10;;;;;;;;;;6123061;23;20588;-72
2023/05/05 09:31:24;;;;;;;3.88;3.20;;;;;;;;;;6096922;23;20018;-71
2023/05/05 09:33:49;;;;;;;2.88;2.78;;;;;;;;;;6122074;23;20355;-71
2023/05/05 09:36:16;;;;;;;8.25;3.20;;;;;;;;;;6122144;23;20026;-71
2023/05/05 09:38:43;;;;;;;4.22;3.92;;;;;;;;;;6096214;23;20434;-72
2023/05/05 09:41:09;;;;;;;2.33;2.10;;;;;;;;;;6122180;23;20018;-71
2023/05/05 09:43:48;;;;;;;3.40;3.10;;;;;;;;;;6096899;23;20013;-71
2023/05/05 09:46:14;;;;;;;3.22;2.80;;;;;;;;;;6124023;23;20014;-71
2023/05/05 09:48:40;;;;;;;4.53;3.00;;;;;;;;;;6123959;23;20045;-71
2023/05/05 09:51:06;;;;;;;2.85;2.65;;;;;;;;;;6098141;23;20041;-72
2023/05/05 09:53:39;;;;;;;8.55;2.75;;;;;;;;;;6098388;23;20458;-73
2023/05/05 09:56:06;;;;;;;4.70;2.75;;;;;;;;;;6123703;23;20424;-73
2023/05/05 09:58:33;;;;;;;2.65;2.45;;;;;;;;;;6097982;23;20426;-72
2023/05/05 10:00:59;;;;;;;3.17;2.97;;;;;;;;;;6124115;23;20014;-73
2023/05/05 10:03:25;;;;;;;4.72;3.60;;;;;;;;;;6098533;23;20411;-73
2023/05/05 10:05:51;;;;;;;3.58;3.28;;;;;;;;;;6097844;23;20013;-71
2023/05/05 10:08:18;;;;;;;3.60;3.15;;;;;;;;;;6098114;23;20022;-73
2023/05/05 10:11:13;;;;;;;3.80;3.50;;;;;;;;;;6123566;23;20445;-73
2023/05/05 10:13:40;;;;;;;3.05;2.85;;;;;;;;;;6093441;23;20033;-73
2023/05/05 10:16:07;;;;;;;3.55;3.25;;;;;;;;;;6124204;23;20109;-73
2023/05/05 10:18:34;;;;;;;3.47;3.17;;;;;;;;;;6074125;23;20014;-73
2023/05/05 10:21:01;;;;;;;7.00;3.80;;;;;;;;;;6124328;23;20049;-72
2023/05/05 10:23:27;;;;;;;3.50;3.22;;;;;;;;;;6124304;23;20061;-72
2023/05/05 10:25:54;;;;;;;2.90;2.70;;;;;;;;;;6123513;23;20644;-73
2023/05/05 10:28:31;;;;;;;2.08;1.95;;;;;;;;;;6123913;23;20357;-72
2023/05/05 10:30:58;;;;;;;3.40;3.20;;;;;;;;;;6123514;23;20041;-73
2023/05/05 10:33:33;;;;;;;5.10;1.90;;;;;;;;;;6123721;23;20045;-72
2023/05/05 10:36:00;;;;;;;2.47;2.38;;;;;;;;;;6097734;23;20025;-73
2023/05/05 10:38:27;;;;;;;1.98;1.88;;;;;;;;;;6123833;23;20014;-73
2023/05/05 10:40:53;;;;;;;5.72;3.30;;;;;;;;;;6123582;23;20018;-72
2023/05/05 10:43:19;;;;;;;2.22;2.13;;;;;;;;;;6124244;23;20020;-72
2023/05/05 10:45:45;;;;;;;2.92;2.28;;;;;;;;;;6123678;23;20076;-73
2023/05/05 10:48:13;;;;;;;3.42;3.22;;;;;;;;;;6124079;23;20034;-73
2023/05/05 10:50:43;;;;;;;2.40;2.30;;;;;;;;;;6100621;23;20045;-73
2023/05/05 10:53:17;;;;;;;4.65;3.00;;;;;;;;;;6049918;23;20042;-72
2023/05/05 10:55:49;;;;;;;2.97;2.78;;;;;;;;;;6097141;23;20049;-72
2023/05/05 10:58:35;;;;;;;3.30;2.95;;;;;;;;;;6123460;23;20522;-72
2023/05/05 11:01:02;;;;;;;5.15;3.08;;;;;;;;;;6097871;23;20101;-72
2023/05/05 11:03:28;;;;;;;5.32;3.00;;;;;;;;;;6123550;23;20061;-73
2023/05/05 11:06:04;;;;;;;3.05;2.85;;;;;;;;;;6122680;23;20018;-73
2023/05/05 11:08:30;;;;;;;3.40;3.10;;;;;;;;;;6073497;23;20100;-72
2023/05/05 11:10:56;;;;;;;2.58;2.38;;;;;;;;;;6122926;23;20013;-72
2023/05/05 11:13:22;;;;;;;2.53;2.33;;;;;;;;;;6123345;23;20021;-73
2023/05/05 11:15:53;;;;;;;4.93;2.50;;;;;;;;;;6122957;23;20029;-72
2023/05/05 11:18:34;;;;;;;4.80;2.93;;;;;;;;;;6098019;23;20157;-73
2023/05/05 11:21:02;;;;;;;4.68;2.70;;;;;;;;;;6122797;23;20351;-73
2023/05/05 11:23:28;;;;;;;5.63;3.67;;;;;;;;;;6073862;23;20025;-73
2023/05/05 11:25:56;;;;;;;2.95;2.30;;;;;;;;;;6122995;23;20336;-73
2023/05/05 11:28:24;;;;;;;2.50;2.33;;;;;;;;;;6097579;23;20036;-73
2023/05/05 11:30:57;;;;;;;3.25;2.78;;;;;;;;;;6097545;23;20009;-73
2023/05/05 11:33:25;;;;;;;2.53;2.42;;;;;;;;;;6123729;23;20040;-73
2023/05/05 11:35:58;;;;;;;3.22;2.67;;;;;;;;;;6073021;23;20033;-73
2023/05/05 11:38:40;;;;;;;2.92;2.72;;;;;;;;;;6097773;23;20014;-73
2023/05/05 11:41:09;;;;;;;2.70;2.60;;;;;;;;;;6124603;23;20041;-72
2023/05/05 11:43:37;;;;;;;1.92;1.83;;;;;;;;;;6123269;23;20017;-73
2023/05/05 11:46:13;;;;;;;3.25;2.22;;;;;;;;;;6073280;23;20262;-73
2023/05/05 11:48:44;;;;;;;3.60;3.30;;;;;;;;;;6097582;23;20013;-73
2023/05/05 11:51:14;;;;;;;5.35;3.08;;;;;;;;;;6097202;23;20085;-73
2023/05/05 11:53:44;;;;;;;2.92;2.72;;;;;;;;;;6122985;23;20100;-73
2023/05/05 11:56:10;;;;;;;4.85;3.03;;;;;;;;;;6122951;23;20026;-73
2023/05/05 11:58:36;;;;;;;3.83;2.55;;;;;;;;;;6123085;23;20030;-73
2023/05/05 12:01:05;;;;;;;2.53;2.38;;;;;;;;;;6122865;23;20014;-73
2023/05/05 12:03:44;;;;;;;5.05;2.47;;;;;;;;;;6049665;23;20085;-73
2023/05/05 12:06:10;;;;;;;6.82;3.10;;;;;;;;;;6073463;23;20014;-73
2023/05/05 12:08:36;;;;;;;3.38;2.78;;;;;;;;;;6097647;23;20020;-73
2023/05/05 12:11:02;;;;;;;3.00;2.80;;;;;;;;;;6122455;23;20435;-73
2023/05/05 12:13:29;;;;;;;5.20;2.55;;;;;;;;;;6123013;23;20014;-72
2023/05/05 12:15:55;;;;;;;4.43;2.60;;;;;;;;;;6096325;23;20025;-73
2023/05/05 12:18:21;;;;;;;2.92;2.75;;;;;;;;;;6122984;23;20037;-73
2023/05/05 12:20:47;;;;;;;2.83;2.30;;;;;;;;;;6073071;23;20029;-73
2023/05/05 12:23:13;;;;;;;2.20;2.10;;;;;;;;;;6097471;23;20084;-74
2023/05/05 12:25:39;;;;;;;2.78;2.25;;;;;;;;;;6122795;23;20017;-73
2023/05/05 12:28:07;;;;;;;4.78;2.70;;;;;;;;;;6122871;23;20360;-74
2023/05/05 12:30:33;;;;;;;2.42;2.22;;;;;;;;;;6123144;23;20469;-74
2023/05/05 12:32:59;;;;;;;2.78;2.58;;;;;;;;;;6096225;23;20029;-72
2023/05/05 12:35:26;;;;;;;4.35;2.92;;;;;;;;;;6122571;23;20025;-74
2023/05/05 12:37:52;;;;;;;1.95;1.85;;;;;;;;;;6096174;23;20018;-73
2023/05/05 12:40:37;;;;;;;2.50;2.40;;;;;;;;;;6122817;23;20037;-72
2023/05/05 12:43:03;;;;;;;2.85;2.08;;;;;;;;;;6122515;23;20096;-73
2023/05/05 12:45:29;;;;;;;4.78;2.80;;;;;;;;;;6121309;23;20414;-73
2023/05/05 12:47:55;;;;;;;4.18;2.53;;;;;;;;;;6096714;23;20024;-73
2023/05/05 12:50:31;;;;;;;3.22;2.83;;;;;;;;;;6122742;23;20018;-73
2023/05/05 12:52:57;;;;;;;3.00;2.80;;;;;;;;;;6098352;23;20073;-73
2023/05/05 12:55:36;;;;;;;3.33;3.03;;;;;;;;;;6097687;23;20021;-72
2023/05/05 12:58:03;;;;;;;2.30;2.20;;;;;;;;;;6122333;23;20017;-72
2023/05/05 13:00:29;;;;;;;3.20;2.90;;;;;;;;;;6122536;23;20013;-73
2023/05/05 13:02:55;;;;;;;2.90;2.47;;;;;;;;;;6121817;23;20497;-72
2023/05/05 13:05:30;;;;;;;2.30;2.20;;;;;;;;;;6122670;23;20021;-72
2023/05/05 13:07:56;;;;;;;1.75;1.73;;;;;;;;;;6120476;23;20089;-72
2023/05/05 13:10:23;;;;;;;7.35;2.53;;;;;;;;;;6071903;23;20021;-72
2023/05/05 13:12:50;;;;;;;1.50;1.50;;;;;;;;;;6096423;23;20009;-72
2023/05/05 13:15:16;;;;;;;1.15;1.15;;;;;;;;;;6122416;23;20509;-73
2023/05/05 13:17:42;;;;;;;5.85;2.88;;;;;;;;;;6122813;23;20010;-73
2023/05/05 13:20:09;;;;;;;2.45;2.30;;;;;;;;;;6098385;23;20090;-72
2023/05/05 13:22:35;;;;;;;3.15;2.58;;;;;;;;;;6124679;23;20018;-72
2023/05/05 13:25:02;;;;;;;4.13;2.60;;;;;;;;;;6124113;23;20046;-72
2023/05/05 13:27:28;;;;;;;1.45;1.45;;;;;;;;;;6125523;23;20041;-72
2023/05/05 13:29:54;;;;;;;2.78;2.30;;;;;;;;;;6124059;23;20014;-72
2023/05/05 13:32:20;;;;;;;2.40;2.20;;;;;;;;;;6125097;23;20089;-72
2023/05/05 13:34:46;;;;;;;5.75;2.63;;;;;;;;;;6124068;23;20454;-72
2023/05/05 13:37:12;;;;;;;3.00;2.75;;;;;;;;;;6098349;23;20018;-72
2023/05/05 13:39:38;;;;;;;2.33;1.73;;;;;;;;;;6124486;23;20014;-72
2023/05/05 13:42:04;;;;;;;5.63;2.20;;;;;;;;;;6124324;23;20006;-72
2023/05/05 13:44:31;;;;;;;4.35;2.90;;;;;;;;;;6102164;23;20363;-72
2023/05/05 13:46:57;;;;;;;5.07;1.90;;;;;;;;;;6076498;23;20010;-73
2023/05/05 13:49:24;;;;;;;4.30;1.80;;;;;;;;;;6124754;23;20096;-73
2023/05/05 13:51:50;;;;;;;1.33;1.33;;;;;;;;;;6124135;23;20017;-72
2023/05/05 13:54:16;;;;;;;1.83;1.73;;;;;;;;;;6097886;23;20025;-72
2023/05/05 13:56:43;;;;;;;1.90;1.80;;;;;;;;;;6124729;23;20018;-72
2023/05/05 13:59:09;;;;;;;3.60;2.78;;;;;;;;;;6124064;23;20084;-72
2023/05/05 14:01:35;;;;;;;4.43;2.33;;;;;;;;;;6124135;23;20044;-72
2023/05/05 14:04:01;;;;;;;2.30;2.20;;;;;;;;;;6098114;23;20045;-72
2023/05/05 14:06:26;;;;;;;6.53;2.20;;;;;;;;;;6124189;23;20455;-72
2023/05/05 14:08:53;;;;;;;2.70;1.98;;;;;;;;;;6124047;23;20482;-72
2023/05/05 14:11:19;;;;;;;3.80;2.40;;;;;;;;;;6074011;23;20451;-73
2023/05/05 14:13:46;;;;;;;4.40;2.28;;;;;;;;;;6124035;23;20411;-73
2023/05/05 14:16:12;;;;;;;2.28;2.17;;;;;;;;;;6073628;23;20501;-73
2023/05/05 14:18:38;;;;;;;4.28;2.42;;;;;;;;;;6098320;23;20016;-73
2023/05/05 14:21:04;;;;;;;2.15;2.05;;;;;;;;;;6123930;23;20362;-72
2023/05/05 14:23:30;;;;;;;2.10;1.60;;;;;;;;;;6097940;23;20088;-72
2023/05/05 14:25:57;;;;;;;1.50;1.40;;;;;;;;;;6123477;23;20151;-72
2023/05/05 14:28:23;;;;;;;3.40;2.35;;;;;;;;;;6123810;23;20010;-73
2023/05/05 14:30:50;;;;;;;3.78;2.38;;;;;;;;;;6123863;23;20017;-72
2023/05/05 14:33:16;;;;;;;2.65;2.45;;;;;;;;;;6098238;23;20014;-73
2023/05/05 14:35:42;;;;;;;3.10;2.90;;;;;;;;;;6098591;23;20021;-73
2023/05/05 14:38:08;;;;;;;2.88;2.67;;;;;;;;;;6073735;23;20500;-73
2023/05/05 14:40:34;;;;;;;2.92;2.70;;;;;;;;;;6124210;23;20018;-73
2023/05/05 14:43:01;;;;;;;3.75;3.08;;;;;;;;;;6097900;23;20406;-72
2023/05/05 14:45:28;;;;;;;4.15;3.35;;;;;;;;;;6124034;23;20014;-73